createdAt,value
2022-10-22T00:03:48.871Z,16.15
2022-10-22T00:08:51.979Z,15.32
2022-10-22T00:13:55.922Z,14.76
2022-10-22T00:18:58.939Z,14.33
2022-10-22T00:24:02.530Z,13.96
2022-10-22T00:29:05.489Z,13.65
2022-10-22T00:34:08.396Z,13.39
2022-10-22T00:39:13.222Z,13.19
2022-10-22T00:44:53.526Z,13.02
2022-10-22T00:50:01.214Z,14.46
2022-10-22T00:55:05.710Z,17.41
2022-10-22T01:00:09.816Z,17.45
2022-10-22T01:05:13.358Z,16.03
2022-10-22T01:10:38.924Z,15.26
2022-10-22T01:15:54.535Z,14.67
2022-10-22T01:21:23.317Z,14.21
2022-10-22T01:26:29.274Z,13.79
2022-10-22T01:31:38.247Z,13.46
2022-10-22T01:36:42.976Z,13.18
2022-10-22T01:41:46.640Z,12.97
2022-10-22T01:46:54.474Z,13.91
2022-10-22T01:52:12.756Z,16.97
2022-10-22T01:57:24.711Z,17.12
2022-10-22T02:02:40.774Z,15.58
2022-10-22T02:07:57.777Z,14.69
2022-10-22T02:13:02.494Z,14.07
2022-10-22T02:18:08.877Z,13.54
2022-10-22T02:23:12.492Z,13.07
2022-10-22T02:28:29.536Z,12.70
2022-10-22T02:33:37.841Z,12.42
2022-10-22T02:38:42.259Z,13.36
2022-10-22T02:43:52.214Z,16.38
2022-10-22T02:48:55.545Z,16.71
2022-10-22T02:53:58.652Z,15.33
2022-10-22T02:59:01.587Z,14.48
2022-10-22T03:04:05.202Z,13.85
2022-10-22T03:09:08.178Z,13.31
2022-10-22T03:14:11.353Z,12.88
2022-10-22T03:19:14.570Z,12.50
2022-10-22T03:24:26.217Z,12.19
2022-10-22T03:29:31.932Z,11.92
2022-10-22T03:34:34.732Z,12.88
2022-10-22T03:39:38.149Z,15.90
2022-10-22T03:44:41.186Z,16.24
2022-10-22T03:49:44.119Z,14.72
2022-10-22T03:54:47.723Z,13.82
2022-10-22T03:59:51.504Z,13.22
2022-10-22T04:04:54.505Z,12.78
2022-10-22T04:09:57.337Z,12.47
2022-10-22T04:15:00.217Z,12.18
2022-10-22T04:20:04.844Z,11.89
2022-10-22T04:25:08.595Z,12.84
2022-10-22T04:30:12.098Z,15.96
2022-10-22T04:35:15.176Z,16.33
2022-10-22T04:40:18.339Z,14.86
2022-10-22T04:45:21.266Z,14.00
2022-10-22T04:50:24.187Z,13.38
2022-10-22T04:55:28.562Z,12.91
2022-10-22T05:00:31.414Z,12.52
2022-10-22T05:05:34.297Z,12.25
2022-10-22T05:10:37.361Z,12.02
2022-10-22T05:15:40.945Z,11.87
2022-10-22T05:20:43.864Z,13.02
2022-10-22T05:25:46.923Z,16.11
2022-10-22T05:30:57.854Z,15.84
2022-10-22T05:36:02.657Z,14.55
2022-10-22T05:41:10.071Z,13.89
2022-10-22T05:46:19.842Z,13.42
2022-10-22T05:51:27.129Z,12.98
2022-10-22T05:56:34.275Z,12.63
2022-10-22T06:01:38.809Z,12.36
2022-10-22T06:06:47.659Z,12.14
2022-10-22T06:11:51.194Z,11.99
2022-10-22T06:16:54.616Z,12.97
2022-10-22T06:21:57.535Z,16.03
2022-10-22T06:27:00.466Z,16.62
2022-10-22T06:32:03.551Z,15.19
2022-10-22T06:37:06.476Z,14.40
2022-10-22T06:42:09.508Z,13.92
2022-10-22T06:47:12.564Z,13.57
2022-10-22T06:52:15.888Z,13.28
2022-10-22T06:57:19.008Z,13.06
2022-10-22T07:02:21.937Z,12.95
2022-10-22T07:07:24.865Z,12.93
2022-10-22T07:12:27.811Z,12.87
2022-10-22T07:17:30.834Z,12.84
2022-10-22T07:22:34.041Z,12.86
2022-10-22T07:27:38.044Z,12.93
2022-10-22T07:32:41.225Z,13.00
2022-10-22T07:37:44.156Z,13.08
2022-10-22T07:42:47.220Z,13.15
2022-10-22T07:47:50.573Z,13.21
2022-10-22T07:52:56.032Z,13.24
2022-10-22T07:58:01.083Z,13.26
2022-10-22T08:03:04.377Z,13.26
2022-10-22T08:08:07.450Z,13.29
2022-10-22T08:13:10.916Z,13.34
2022-10-22T08:18:15.071Z,13.42
2022-10-22T08:23:18.002Z,13.50
2022-10-22T08:28:22.109Z,13.59
2022-10-22T08:33:25.470Z,13.70
2022-10-22T08:38:28.574Z,13.77
2022-10-22T08:43:37.315Z,13.84
2022-10-22T08:48:48.282Z,13.91
2022-10-22T08:54:16.522Z,14.02
2022-10-22T08:59:41.781Z,14.10
2022-10-22T09:04:50.875Z,14.15
2022-10-22T09:09:55.757Z,14.17
2022-10-22T09:14:59.129Z,14.18
2022-10-22T09:20:16.142Z,14.16
2022-10-22T09:25:23.809Z,14.22
2022-10-22T09:30:29.951Z,14.30
2022-10-22T09:36:03.689Z,14.38
2022-10-22T09:41:09.140Z,14.49
2022-10-22T09:46:21.637Z,14.57
2022-10-22T09:51:55.315Z,14.58
2022-10-22T09:57:05.257Z,14.58
2022-10-22T10:02:20.261Z,14.60
2022-10-22T10:07:34.529Z,14.64
2022-10-22T10:12:57.970Z,14.66
2022-10-22T10:18:39.148Z,14.70
2022-10-22T10:23:58.670Z,14.68
2022-10-22T10:29:16.564Z,14.67
2022-10-22T10:34:35.737Z,14.67
2022-10-22T10:39:59.334Z,14.71
2022-10-22T10:45:18.085Z,14.74
2022-10-22T10:50:50.430Z,14.75
2022-10-22T10:56:08.674Z,14.77
2022-10-22T11:01:23.772Z,14.80
2022-10-22T11:06:30.255Z,14.81
2022-10-22T11:11:40.686Z,14.81
2022-10-22T11:16:49.878Z,14.82
2022-10-22T11:22:26.510Z,15.90
2022-10-22T11:27:39.939Z,19.07
2022-10-22T11:32:47.575Z,18.78
2022-10-22T11:37:52.092Z,17.61
2022-10-22T11:43:03.629Z,16.98
2022-10-22T11:48:07.406Z,16.48
2022-10-22T11:53:13.432Z,16.10
2022-10-22T11:58:28.161Z,15.82
2022-10-22T12:03:31.077Z,15.60
2022-10-22T12:08:34.703Z,15.40
2022-10-22T12:14:01.609Z,16.23
2022-10-22T12:19:15.538Z,19.24
2022-10-22T12:24:23.261Z,19.59
2022-10-22T12:29:27.756Z,18.15
2022-10-22T12:34:30.704Z,17.33
2022-10-22T12:39:35.578Z,16.78
2022-10-22T12:44:38.488Z,16.32
2022-10-22T12:49:44.530Z,15.89
2022-10-22T12:54:52.518Z,15.54
2022-10-22T12:59:55.514Z,16.54
2022-10-22T13:05:21.660Z,19.19
2022-10-22T13:10:32.482Z,18.45
2022-10-22T13:15:38.744Z,17.26
2022-10-22T13:20:56.414Z,16.60
2022-10-22T13:26:18.034Z,16.11
2022-10-22T13:31:32.260Z,15.72
2022-10-22T13:36:36.687Z,16.62
2022-10-22T13:46:48.537Z,18.73
2022-10-22T13:51:52.761Z,17.52
2022-10-22T13:56:56.103Z,16.82
2022-10-22T14:02:06.090Z,16.33
2022-10-22T14:07:14.458Z,15.94
2022-10-22T14:12:17.494Z,16.81
2022-10-22T14:17:20.541Z,19.60
2022-10-22T14:22:27.185Z,19.35
2022-10-22T14:27:30.157Z,17.95
2022-10-22T14:32:33.147Z,17.15
2022-10-22T14:37:36.129Z,16.60
2022-10-22T14:42:45.491Z,16.15
2022-10-22T14:47:50.487Z,16.98
2022-10-22T14:52:53.740Z,19.65
2022-10-22T14:57:58.051Z,19.28
2022-10-22T15:03:03.421Z,17.80
2022-10-22T15:08:07.682Z,17.00
2022-10-22T15:13:11.018Z,16.43
2022-10-22T15:18:13.952Z,15.96
2022-10-22T15:23:16.931Z,16.86
2022-10-22T15:28:21.221Z,19.60
2022-10-22T15:33:25.039Z,19.93
2022-10-22T15:43:34.510Z,17.24
2022-10-22T15:48:37.482Z,16.55
2022-10-22T15:53:40.494Z,17.17
2022-10-22T15:58:43.394Z,19.76
2022-10-22T16:03:46.502Z,19.59
2022-10-22T16:08:49.437Z,17.90
2022-10-22T16:13:57.060Z,16.90
2022-10-22T16:19:00.591Z,16.24
2022-10-22T16:24:06.294Z,16.96
2022-10-22T16:29:12.557Z,19.64
2022-10-22T16:34:15.494Z,20.12
2022-10-22T16:39:18.464Z,18.47
2022-10-22T16:44:21.380Z,17.45
2022-10-22T16:49:24.425Z,16.74
2022-10-22T16:54:27.673Z,17.43
2022-10-22T16:59:30.591Z,20.03
2022-10-22T17:04:34.577Z,20.01
2022-10-22T17:09:37.541Z,18.42
2022-10-22T17:14:40.845Z,17.50
2022-10-22T17:19:43.806Z,16.86
2022-10-22T17:24:46.672Z,17.57
2022-10-22T17:29:49.834Z,20.16
2022-10-22T17:34:52.789Z,20.24
2022-10-22T17:39:55.625Z,18.59
2022-10-22T17:44:58.491Z,17.55
2022-10-22T17:50:01.387Z,17.82
2022-10-22T17:55:04.695Z,20.16
2022-10-22T18:00:08.356Z,19.49
2022-10-22T18:05:12.281Z,17.94
2022-10-22T18:10:15.276Z,16.96
2022-10-22T18:15:18.322Z,17.44
2022-10-22T18:20:21.306Z,19.92
2022-10-22T18:25:24.590Z,20.22
2022-10-22T18:30:27.848Z,18.38
2022-10-22T18:35:32.432Z,17.19
2022-10-22T18:40:36.225Z,17.65
2022-10-22T18:45:46.929Z,20.04
2022-10-22T18:51:00.159Z,19.91
2022-10-22T18:56:08.035Z,18.01
2022-10-22T19:01:14.075Z,16.90
2022-10-22T19:06:24.354Z,17.39
2022-10-22T19:11:27.929Z,19.85
2022-10-22T19:16:31.120Z,20.05
2022-10-22T19:21:36.635Z,18.21
2022-10-22T19:26:39.809Z,17.04
2022-10-22T19:31:43.096Z,18.27
2022-10-22T19:36:46.265Z,19.76
2022-10-22T19:41:49.523Z,18.18
2022-10-22T19:46:52.461Z,16.93
2022-10-22T19:51:55.350Z,17.57
2022-10-22T19:56:58.294Z,19.72
2022-10-22T20:02:01.257Z,18.47
2022-10-22T20:07:06.101Z,17.27
2022-10-22T20:12:09.114Z,19.11
2022-10-22T20:17:12.320Z,19.65
2022-10-22T20:22:17.980Z,17.94
2022-10-22T20:27:22.143Z,16.89
2022-10-22T20:32:27.226Z,17.39
2022-10-22T20:37:30.083Z,19.81
2022-10-22T20:42:33.068Z,19.93
2022-10-22T20:47:50.817Z,18.24
2022-10-22T20:52:54.906Z,17.11
2022-10-22T20:57:57.926Z,17.49
2022-10-22T21:03:00.809Z,19.75
2022-10-22T21:08:05.225Z,19.70
2022-10-22T21:13:08.394Z,17.89
2022-10-22T21:18:11.532Z,16.75
2022-10-22T21:23:14.430Z,17.45
2022-10-22T21:28:17.471Z,19.75
2022-10-22T21:33:21.389Z,19.05
2022-10-22T21:38:25.096Z,17.45
2022-10-22T21:43:28.006Z,17.78
2022-10-22T21:48:31.020Z,20.06
2022-10-22T21:53:34.167Z,19.32
2022-10-22T21:58:37.194Z,17.77
2022-10-22T22:03:45.510Z,17.27
2022-10-22T22:08:49.095Z,19.44
2022-10-22T22:13:53.479Z,20.01
2022-10-22T22:24:09.100Z,17.28
2022-10-22T22:29:12.024Z,17.67
2022-10-22T22:34:16.922Z,19.98
2022-10-22T22:39:22.834Z,19.28
2022-10-22T22:44:26.087Z,17.81
2022-10-22T22:49:29.012Z,16.94
2022-10-22T22:54:32.150Z,17.72
2022-10-22T22:59:35.076Z,20.03
2022-10-22T23:04:38.010Z,19.45
2022-10-22T23:09:40.946Z,17.93
2022-10-22T23:14:43.930Z,16.98
2022-10-22T23:19:47.091Z,17.56
2022-10-22T23:24:50.028Z,19.94
2022-10-22T23:29:53.180Z,19.16
2022-10-22T23:34:56.122Z,17.68
2022-10-22T23:39:59.076Z,16.81
2022-10-22T23:45:02.206Z,18.02
2022-10-22T23:50:05.370Z,20.08
2022-10-22T23:55:08.789Z,19.05
